createdAt,value
2017-07-08T00:00:30.180Z,100432
2017-07-08T00:01:31.214Z,100427
2017-07-08T00:02:31.198Z,100429
2017-07-08T00:03:30.568Z,100430
2017-07-08T00:04:31.297Z,100428
2017-07-08T00:05:32.113Z,100430
2017-07-08T00:06:30.478Z,100424
2017-07-08T00:07:31.511Z,100430
2017-07-08T00:08:32.236Z,100430
2017-07-08T00:09:30.805Z,100427
2017-07-08T00:10:30.580Z,100430
2017-07-08T00:11:30.649Z,100428
2017-07-08T00:12:31.689Z,100427
2017-07-08T00:13:30.696Z,100430
2017-07-08T00:14:32.443Z,100425
2017-07-08T00:15:32.747Z,100428
2017-07-08T00:16:30.895Z,100423
2017-07-08T00:17:30.874Z,100416
2017-07-08T00:18:31.896Z,100420
2017-07-08T00:19:32.036Z,100421
2017-07-08T00:20:32.051Z,100418
2017-07-08T00:21:32.297Z,100420
2017-07-08T00:22:32.048Z,100421
2017-07-08T00:23:31.151Z,100414
2017-07-08T00:24:31.173Z,100423
2017-07-08T00:25:32.922Z,100424
2017-07-08T00:26:31.244Z,100424
2017-07-08T00:27:31.660Z,100427
2017-07-08T00:28:32.969Z,100431
2017-07-08T00:29:33.043Z,100423
2017-07-08T00:30:33.135Z,100430
2017-07-08T00:31:31.499Z,100434
2017-07-08T00:32:31.561Z,100431
2017-07-08T00:33:32.926Z,100435
2017-07-08T00:34:31.625Z,100441
2017-07-08T00:35:32.627Z,100435
2017-07-08T00:36:31.758Z,100440
2017-07-08T00:37:31.773Z,100434
2017-07-08T00:38:33.488Z,100438
2017-07-08T00:39:32.194Z,100434
2017-07-08T00:40:31.911Z,100431
2017-07-08T00:41:31.968Z,100430
2017-07-08T00:42:32.964Z,100434
2017-07-08T00:43:31.971Z,100430
2017-07-08T00:44:32.052Z,100428
2017-07-08T00:45:33.320Z,100426
2017-07-08T00:46:32.042Z,100427
2017-07-08T00:47:32.133Z,100424
2017-07-08T00:48:32.169Z,100425
2017-07-08T00:49:32.208Z,100425
2017-07-08T00:50:32.189Z,100428
2017-07-08T00:51:33.513Z,100416
2017-07-08T00:52:33.332Z,100423
2017-07-08T00:53:32.417Z,100425
2017-07-08T00:54:34.059Z,100428
2017-07-08T00:55:33.803Z,100425
2017-07-08T00:56:34.216Z,100424
2017-07-08T00:57:34.559Z,100418
2017-07-08T00:58:32.603Z,100423
2017-07-08T00:59:33.638Z,100425
2017-07-08T01:00:32.683Z,100428
2017-07-08T01:01:34.426Z,100429
2017-07-08T01:02:32.747Z,100429
2017-07-08T01:03:33.146Z,100428
2017-07-08T01:04:32.870Z,100424
2017-07-08T01:05:32.930Z,100427
2017-07-08T01:06:32.963Z,100428
2017-07-08T01:07:34.727Z,100418
2017-07-08T01:08:33.104Z,100423
2017-07-08T01:09:33.415Z,100417
2017-07-08T01:10:33.271Z,100415
2017-07-08T01:11:34.317Z,100414
2017-07-08T01:12:35.001Z,100417
2017-07-08T01:13:33.423Z,100415
2017-07-08T01:14:35.157Z,100416
2017-07-08T01:15:34.738Z,100420
2017-07-08T01:16:35.252Z,100416
2017-07-08T01:17:34.621Z,100403
2017-07-08T01:18:33.619Z,100416
2017-07-08T01:19:35.363Z,100418
2017-07-08T01:20:34.741Z,100420
2017-07-08T01:21:35.826Z,100421
2017-07-08T01:22:33.963Z,100417
2017-07-08T01:23:35.697Z,100425
2017-07-08T01:24:34.054Z,100427
2017-07-08T01:25:35.761Z,100418
2017-07-08T01:26:34.137Z,100425
2017-07-08T01:27:36.112Z,100425
2017-07-08T01:28:35.141Z,100425
2017-07-08T01:29:34.221Z,100426
2017-07-08T01:30:34.257Z,100427
2017-07-08T01:31:35.947Z,100427
2017-07-08T01:32:34.278Z,100426
2017-07-08T01:33:34.734Z,100430
2017-07-08T01:34:34.399Z,100433
2017-07-08T01:35:36.109Z,100433
2017-07-08T01:36:35.477Z,100433
2017-07-08T01:37:36.308Z,100429
2017-07-08T01:38:34.601Z,100430
2017-07-08T01:39:36.710Z,100428
2017-07-08T01:40:35.640Z,100423
2017-07-08T01:41:36.397Z,100418
2017-07-08T01:42:34.743Z,100423
2017-07-08T01:43:34.802Z,100425
2017-07-08T01:44:35.761Z,100425
2017-07-08T01:45:35.151Z,100418
2017-07-08T01:46:35.945Z,100421
2017-07-08T01:47:36.618Z,100418
2017-07-08T01:48:35.040Z,100417
2017-07-08T01:49:35.974Z,100419
2017-07-08T01:50:35.107Z,100414
2017-07-08T01:51:35.497Z,100414
2017-07-08T01:52:35.186Z,100414
2017-07-08T01:53:35.285Z,100414
2017-07-08T01:54:36.960Z,100413
2017-07-08T01:55:36.253Z,100413
2017-07-08T01:56:36.992Z,100405
2017-07-08T01:57:35.638Z,100401
2017-07-08T01:58:35.390Z,100400
2017-07-08T01:59:36.340Z,100401
2017-07-08T02:00:37.138Z,100397
2017-07-08T02:01:35.579Z,100396
2017-07-08T02:02:36.561Z,100394
2017-07-08T02:03:36.881Z,100394
2017-07-08T02:04:35.706Z,100394
2017-07-08T02:05:37.418Z,100384
2017-07-08T02:06:35.777Z,100393
2017-07-08T02:07:36.754Z,100396
2017-07-08T02:08:36.819Z,100402
2017-07-08T02:09:36.152Z,100407
2017-07-08T02:10:37.660Z,100404
2017-07-08T02:11:37.748Z,100403
2017-07-08T02:12:37.140Z,100398
2017-07-08T02:13:37.171Z,100388
2017-07-08T02:14:37.325Z,100401
2017-07-08T02:15:36.741Z,100394
2017-07-08T02:16:36.441Z,100399
2017-07-08T02:17:36.567Z,100400
2017-07-08T02:18:38.220Z,100405
2017-07-08T02:19:37.582Z,100402
2017-07-08T02:20:36.659Z,100400
2017-07-08T02:21:38.015Z,100404
2017-07-08T02:22:36.777Z,100396
2017-07-08T02:23:36.880Z,100406
2017-07-08T02:24:37.924Z,100398
2017-07-08T02:25:37.043Z,100394
2017-07-08T02:26:37.982Z,100399
2017-07-08T02:27:37.365Z,100401
2017-07-08T02:28:37.171Z,100400
2017-07-08T02:29:37.140Z,100398
2017-07-08T02:30:38.886Z,100406
2017-07-08T02:31:37.220Z,100394
2017-07-08T02:32:38.974Z,100402
2017-07-08T02:33:37.641Z,100403
2017-07-08T02:34:37.366Z,100402
2017-07-08T02:35:38.407Z,100391
2017-07-08T02:36:37.468Z,100400
2017-07-08T02:37:37.521Z,100393
2017-07-08T02:38:39.263Z,100402
2017-07-08T02:39:37.963Z,100391
2017-07-08T02:40:38.693Z,100399
2017-07-08T02:41:37.832Z,100399
2017-07-08T02:42:38.826Z,100404
2017-07-08T02:43:38.805Z,100402
2017-07-08T02:44:37.911Z,100399
2017-07-08T02:45:38.221Z,100389
2017-07-08T02:46:37.946Z,100396
2017-07-08T02:47:37.982Z,100398
2017-07-08T02:48:38.978Z,100395
2017-07-08T02:49:39.772Z,100393
2017-07-08T02:50:38.114Z,100398
2017-07-08T02:51:40.253Z,100393
2017-07-08T02:52:38.276Z,100397
2017-07-08T02:53:40.055Z,100395
2017-07-08T02:54:39.409Z,100394
2017-07-08T02:55:38.497Z,100393
2017-07-08T02:56:38.626Z,100396
2017-07-08T02:57:39.008Z,100397
2017-07-08T02:58:38.831Z,100391
2017-07-08T02:59:38.830Z,100404
2017-07-08T03:00:38.780Z,100402
2017-07-08T03:01:39.832Z,100399
2017-07-08T03:02:38.985Z,100394
2017-07-08T03:03:39.267Z,100402
2017-07-08T03:04:39.983Z,100404
2017-07-08T03:05:39.089Z,100390
2017-07-08T03:06:40.842Z,100396
2017-07-08T03:07:40.864Z,100401
2017-07-08T03:08:40.934Z,100400
2017-07-08T03:09:39.683Z,100396
2017-07-08T03:10:39.420Z,100399
2017-07-08T03:11:39.451Z,100394
2017-07-08T03:12:39.509Z,100393
2017-07-08T03:13:40.535Z,100392
2017-07-08T03:14:40.545Z,100396
2017-07-08T03:15:41.649Z,100392
2017-07-08T03:16:41.382Z,100394
2017-07-08T03:17:39.678Z,100390
2017-07-08T03:18:39.747Z,100386
2017-07-08T03:19:40.741Z,100392
2017-07-08T03:20:40.710Z,100381
2017-07-08T03:21:40.147Z,100398
2017-07-08T03:22:39.839Z,100397
2017-07-08T03:23:39.871Z,100392
2017-07-08T03:24:40.951Z,100385
2017-07-08T03:25:41.775Z,100393
2017-07-08T03:26:41.882Z,100395
2017-07-08T03:27:42.187Z,100402
2017-07-08T03:28:40.322Z,100399
2017-07-08T03:29:40.314Z,100389
2017-07-08T03:30:41.353Z,100396
2017-07-08T03:31:42.203Z,100389
2017-07-08T03:32:42.214Z,100396
2017-07-08T03:33:41.810Z,100398
2017-07-08T03:34:42.295Z,100399
2017-07-08T03:35:41.667Z,100395
2017-07-08T03:36:40.818Z,100397
2017-07-08T03:37:40.912Z,100397
2017-07-08T03:38:40.994Z,100395
2017-07-08T03:39:41.361Z,100398
2017-07-08T03:40:42.030Z,100397
2017-07-08T03:41:41.158Z,100398
2017-07-08T03:42:42.202Z,100389
2017-07-08T03:43:41.310Z,100397
2017-07-08T03:44:43.018Z,100390
2017-07-08T03:45:41.698Z,100397
2017-07-08T03:46:43.184Z,100398
2017-07-08T03:47:42.479Z,100398
2017-07-08T03:48:41.644Z,100395
2017-07-08T03:49:43.345Z,100404
2017-07-08T03:50:41.760Z,100407
2017-07-08T03:51:43.740Z,100409
2017-07-08T03:52:43.523Z,100411
2017-07-08T03:53:42.827Z,100411
2017-07-08T03:54:41.989Z,100410
2017-07-08T03:55:42.063Z,100413
2017-07-08T03:56:43.764Z,100413
2017-07-08T03:57:42.312Z,100405
2017-07-08T03:58:43.073Z,100412
2017-07-08T03:59:42.137Z,100412
2017-07-08T04:00:43.863Z,100406
2017-07-08T04:01:42.182Z,100408
2017-07-08T04:02:42.242Z,100403
2017-07-08T04:03:44.330Z,100408
2017-07-08T04:04:44.098Z,100402
2017-07-08T04:05:44.143Z,100396
2017-07-08T04:06:42.521Z,100405
2017-07-08T04:07:42.521Z,100395
2017-07-08T04:08:42.535Z,100396
2017-07-08T04:09:44.620Z,100400
2017-07-08T04:10:43.667Z,100399
2017-07-08T04:11:44.454Z,100392
2017-07-08T04:12:42.813Z,100400
2017-07-08T04:13:42.887Z,100405
2017-07-08T04:14:42.988Z,100409
2017-07-08T04:15:43.249Z,100405
2017-07-08T04:16:42.983Z,100409
2017-07-08T04:17:44.680Z,100411
2017-07-08T04:18:43.110Z,100411
2017-07-08T04:19:43.080Z,100411
2017-07-08T04:20:44.805Z,100416
2017-07-08T04:21:43.485Z,100420
2017-07-08T04:22:44.831Z,100420
2017-07-08T04:23:43.168Z,100414
2017-07-08T04:24:44.189Z,100419
2017-07-08T04:25:43.283Z,100419
2017-07-08T04:26:43.385Z,100416
2017-07-08T04:27:45.301Z,100416
2017-07-08T04:28:45.084Z,100411
2017-07-08T04:29:44.479Z,100419
2017-07-08T04:30:43.491Z,100421
2017-07-08T04:31:43.580Z,100424
2017-07-08T04:32:43.656Z,100421
2017-07-08T04:33:45.712Z,100415
2017-07-08T04:34:44.679Z,100422
2017-07-08T04:35:45.442Z,100421
2017-07-08T04:36:45.544Z,100420
2017-07-08T04:37:43.926Z,100413
2017-07-08T04:38:44.990Z,100425
2017-07-08T04:39:44.292Z,100425
2017-07-08T04:40:44.106Z,100422
2017-07-08T04:41:45.150Z,100427
2017-07-08T04:42:44.279Z,100432
2017-07-08T04:43:44.346Z,100425
2017-07-08T04:44:46.086Z,100436
2017-07-08T04:45:44.811Z,100431
2017-07-08T04:46:44.514Z,100437
2017-07-08T04:47:44.527Z,100440
2017-07-08T04:48:45.514Z,100441
2017-07-08T04:49:44.654Z,100431
2017-07-08T04:50:44.721Z,100440
2017-07-08T04:51:45.010Z,100441
2017-07-08T04:52:44.786Z,100440
2017-07-08T04:53:44.775Z,100437
2017-07-08T04:54:44.837Z,100435
2017-07-08T04:55:44.954Z,100438
2017-07-08T04:56:45.983Z,100437
2017-07-08T04:57:45.268Z,100440
2017-07-08T04:58:45.144Z,100436
2017-07-08T04:59:46.922Z,100433
2017-07-08T05:00:45.222Z,100431
2017-07-08T05:01:46.982Z,100440
2017-07-08T05:02:46.276Z,100439
2017-07-08T05:03:45.630Z,100441
2017-07-08T05:04:45.346Z,100444
2017-07-08T05:05:47.178Z,100438
2017-07-08T05:06:47.158Z,100429
2017-07-08T05:07:47.230Z,100437
2017-07-08T05:08:47.339Z,100438
2017-07-08T05:09:46.001Z,100441
2017-07-08T05:10:45.679Z,100438
2017-07-08T05:11:45.702Z,100435
2017-07-08T05:12:45.802Z,100439
2017-07-08T05:13:45.878Z,100435
2017-07-08T05:14:47.580Z,100436
2017-07-08T05:15:47.164Z,100437
2017-07-08T05:16:45.907Z,100427
2017-07-08T05:17:45.941Z,100434
2017-07-08T05:18:47.697Z,100436
2017-07-08T05:19:46.002Z,100437
2017-07-08T05:20:47.080Z,100440
2017-07-08T05:21:48.143Z,100440
2017-07-08T05:22:47.232Z,100442
2017-07-08T05:23:47.283Z,100442
2017-07-08T05:24:46.444Z,100437
2017-07-08T05:25:47.439Z,100444
2017-07-08T05:26:46.514Z,100436
2017-07-08T05:27:47.779Z,100443
2017-07-08T05:28:46.565Z,100444
2017-07-08T05:29:46.670Z,100442
2017-07-08T05:30:47.631Z,100440
2017-07-08T05:31:47.717Z,100441
2017-07-08T05:32:48.443Z,100438
2017-07-08T05:33:47.146Z,100440
2017-07-08T05:34:47.901Z,100439
2017-07-08T05:35:46.958Z,100426
2017-07-08T05:36:47.962Z,100435
2017-07-08T05:37:47.023Z,100440
2017-07-08T05:38:47.036Z,100432
2017-07-08T05:39:49.109Z,100441
2017-07-08T05:40:48.861Z,100438
2017-07-08T05:41:47.281Z,100437
2017-07-08T05:42:47.247Z,100435
2017-07-08T05:43:48.288Z,100433
2017-07-08T05:44:48.339Z,100428
2017-07-08T05:45:49.334Z,100435
2017-07-08T05:46:47.459Z,100432
2017-07-08T05:47:48.534Z,100434
2017-07-08T05:48:49.297Z,100419
2017-07-08T05:49:47.693Z,100430
2017-07-08T05:50:48.706Z,100425
2017-07-08T05:51:48.054Z,100428
2017-07-08T05:52:49.473Z,100429
2017-07-08T05:53:47.838Z,100421
2017-07-08T05:54:48.911Z,100424
2017-07-08T05:55:49.632Z,100424
2017-07-08T05:56:48.912Z,100426
2017-07-08T05:57:49.957Z,100422
2017-07-08T05:58:49.765Z,100414
2017-07-08T05:59:49.800Z,100427
2017-07-08T06:00:49.794Z,100427
2017-07-08T06:01:48.156Z,100426
2017-07-08T06:02:48.217Z,100426
2017-07-08T06:03:49.466Z,100429
2017-07-08T06:04:48.339Z,100430
2017-07-08T06:05:49.390Z,100428
2017-07-08T06:06:48.486Z,100426
2017-07-08T06:07:49.547Z,100429
2017-07-08T06:08:50.287Z,100423
2017-07-08T06:09:49.026Z,100417
2017-07-08T06:10:48.697Z,100423
2017-07-08T06:11:48.749Z,100415
2017-07-08T06:12:48.805Z,100426
2017-07-08T06:13:48.894Z,100426
2017-07-08T06:14:49.004Z,100419
2017-07-08T06:15:50.961Z,100419
2017-07-08T06:16:49.061Z,100417
2017-07-08T06:17:50.042Z,100417
2017-07-08T06:18:50.872Z,100417
2017-07-08T06:19:49.226Z,100418
2017-07-08T06:20:50.973Z,100416
2017-07-08T06:21:50.591Z,100416
2017-07-08T06:22:51.149Z,100417
2017-07-08T06:23:51.198Z,100412
2017-07-08T06:24:49.579Z,100420
2017-07-08T06:25:49.556Z,100420
2017-07-08T06:26:49.607Z,100424
2017-07-08T06:27:49.948Z,100422
2017-07-08T06:28:49.675Z,100416
2017-07-08T06:29:51.382Z,100425
2017-07-08T06:30:49.749Z,100422
2017-07-08T06:31:51.451Z,100421
2017-07-08T06:32:50.822Z,100417
2017-07-08T06:33:51.145Z,100411
2017-07-08T06:34:49.961Z,100417
2017-07-08T06:35:50.006Z,100420
2017-07-08T06:36:50.012Z,100419
2017-07-08T06:37:51.750Z,100419
2017-07-08T06:38:50.073Z,100420
2017-07-08T06:39:50.495Z,100419
2017-07-08T06:40:50.166Z,100409
2017-07-08T06:41:50.277Z,100419
2017-07-08T06:42:52.015Z,100418
2017-07-08T06:43:51.359Z,100416
2017-07-08T06:44:51.164Z,100415
2017-07-08T06:45:50.842Z,100418
2017-07-08T06:46:52.336Z,100420
2017-07-08T06:47:50.688Z,100424
2017-07-08T06:48:52.444Z,100427
2017-07-08T06:49:50.921Z,100418
2017-07-08T06:50:50.914Z,100427
2017-07-08T06:51:52.872Z,100419
2017-07-08T06:52:50.993Z,100423
2017-07-08T06:53:52.712Z,100417
2017-07-08T06:54:52.096Z,100424
2017-07-08T06:55:52.847Z,100415
2017-07-08T06:56:51.828Z,100417
2017-07-08T06:57:52.424Z,100416
2017-07-08T06:58:52.243Z,100421
2017-07-08T06:59:51.352Z,100424
2017-07-08T07:00:51.440Z,100420
2017-07-08T07:01:51.525Z,100429
2017-07-08T07:02:52.586Z,100427
2017-07-08T07:03:53.623Z,100427
2017-07-08T07:04:51.669Z,100422
2017-07-08T07:05:51.717Z,100424
2017-07-08T07:06:51.742Z,100421
2017-07-08T07:07:53.524Z,100419
2017-07-08T07:08:51.826Z,100418
2017-07-08T07:09:52.258Z,100422
2017-07-08T07:10:51.960Z,100421
2017-07-08T07:11:52.037Z,100428
2017-07-08T07:12:53.001Z,100424
2017-07-08T07:13:52.169Z,100425
2017-07-08T07:14:53.922Z,100427
2017-07-08T07:15:54.237Z,100428
2017-07-08T07:16:52.302Z,100426
2017-07-08T07:17:53.362Z,100431
2017-07-08T07:18:52.373Z,100430
2017-07-08T07:19:54.112Z,100429
2017-07-08T07:20:52.462Z,100423
2017-07-08T07:21:54.487Z,100431
2017-07-08T07:22:52.573Z,100435
2017-07-08T07:23:52.679Z,100435
2017-07-08T07:24:53.640Z,100435
2017-07-08T07:25:52.747Z,100437
2017-07-08T07:26:52.818Z,100435
2017-07-08T07:27:53.030Z,100439
2017-07-08T07:28:52.880Z,100440
2017-07-08T07:29:52.930Z,100435
2017-07-08T07:30:53.911Z,100433
2017-07-08T07:31:53.005Z,100440
2017-07-08T07:32:53.974Z,100446
2017-07-08T07:33:54.348Z,100450
2017-07-08T07:34:53.154Z,100446
2017-07-08T07:35:54.131Z,100457
2017-07-08T07:36:54.192Z,100460
2017-07-08T07:37:54.265Z,100460
2017-07-08T07:38:53.357Z,100461
2017-07-08T07:39:53.687Z,100466
2017-07-08T07:40:55.098Z,100467
2017-07-08T07:41:55.175Z,100468
2017-07-08T07:42:55.207Z,100472
2017-07-08T07:43:55.236Z,100467
2017-07-08T07:44:54.505Z,100471
2017-07-08T07:45:54.797Z,100468
2017-07-08T07:46:54.669Z,100471
2017-07-08T07:47:53.777Z,100467
2017-07-08T07:48:53.773Z,100470
2017-07-08T07:49:53.797Z,100469
2017-07-08T07:50:54.803Z,100468
2017-07-08T07:51:55.767Z,100475
2017-07-08T07:52:53.966Z,100471
2017-07-08T07:53:53.983Z,100470
2017-07-08T07:54:54.938Z,100469
2017-07-08T07:55:54.062Z,100461
2017-07-08T07:56:54.074Z,100462
2017-07-08T07:57:55.387Z,100470
2017-07-08T07:58:54.174Z,100460
2017-07-08T07:59:55.230Z,100465
2017-07-08T08:00:54.317Z,100465
2017-07-08T08:01:56.069Z,100466
2017-07-08T08:02:55.384Z,100464
2017-07-08T08:03:54.767Z,100469
2017-07-08T08:04:55.509Z,100464
2017-07-08T08:05:56.886Z,100464
2017-07-08T08:06:54.650Z,100456
2017-07-08T08:07:54.697Z,100465
2017-07-08T08:08:54.727Z,100463
2017-07-08T08:09:55.079Z,100457
2017-07-08T08:10:55.774Z,100464
2017-07-08T08:11:54.857Z,100464
2017-07-08T08:12:54.899Z,100453
2017-07-08T08:13:55.937Z,100466
2017-07-08T08:14:56.816Z,100466
2017-07-08T08:15:56.398Z,100468
2017-07-08T08:16:56.160Z,100470
2017-07-08T08:17:56.140Z,100467
2017-07-08T08:18:56.182Z,100474
2017-07-08T08:19:55.337Z,100472
2017-07-08T08:20:56.337Z,100472
2017-07-08T08:21:56.682Z,100475
2017-07-08T08:22:55.473Z,100476
2017-07-08T08:23:57.257Z,100475
2017-07-08T08:24:55.672Z,100475
2017-07-08T08:25:57.367Z,100477
2017-07-08T08:26:55.807Z,100480
2017-07-08T08:27:56.061Z,100481
2017-07-08T08:28:56.817Z,100479
2017-07-08T08:29:55.888Z,100486
2017-07-08T08:30:55.921Z,100475
2017-07-08T08:31:56.989Z,100485
2017-07-08T08:32:56.972Z,100473
2017-07-08T08:33:56.379Z,100484
2017-07-08T08:34:57.130Z,100482
2017-07-08T08:35:56.197Z,100484
2017-07-08T08:36:57.171Z,100478
2017-07-08T08:37:56.244Z,100481
2017-07-08T08:38:57.987Z,100479
2017-07-08T08:39:57.602Z,100471
2017-07-08T08:40:58.134Z,100480
2017-07-08T08:41:58.158Z,100475
2017-07-08T08:42:58.199Z,100477
2017-07-08T08:43:56.539Z,100476
2017-07-08T08:44:58.342Z,100475
2017-07-08T08:45:58.646Z,100477
2017-07-08T08:46:56.642Z,100475
2017-07-08T08:47:56.718Z,100475
2017-07-08T08:48:56.739Z,100474
2017-07-08T08:49:56.816Z,100473
2017-07-08T08:50:56.860Z,100463
2017-07-08T08:51:58.201Z,100469
2017-07-08T08:52:58.638Z,100469
2017-07-08T08:53:57.986Z,100469
2017-07-08T08:54:57.149Z,100475
2017-07-08T08:55:58.083Z,100473
2017-07-08T08:56:57.186Z,100472
2017-07-08T08:57:57.601Z,100473
2017-07-08T08:58:57.322Z,100473
2017-07-08T08:59:58.288Z,100477
2017-07-08T09:00:58.343Z,100470
2017-07-08T09:01:57.403Z,100471
2017-07-08T09:02:57.505Z,100472
2017-07-08T09:03:58.840Z,100462
2017-07-08T09:04:58.607Z,100468
2017-07-08T09:05:58.718Z,100468
2017-07-08T09:06:59.501Z,100466
2017-07-08T09:07:57.865Z,100469
2017-07-08T09:08:57.907Z,100469
2017-07-08T09:09:58.312Z,100470
2017-07-08T09:10:58.046Z,100464
2017-07-08T09:11:58.045Z,100473
2017-07-08T09:12:58.064Z,100470
2017-07-08T09:13:58.106Z,100470
2017-07-08T09:14:58.225Z,100472
2017-07-08T09:15:59.552Z,100477
2017-07-08T09:16:58.306Z,100479
2017-07-08T09:17:58.310Z,100473
2017-07-08T09:19:00.048Z,100471
2017-07-08T09:19:59.371Z,100471
2017-07-08T09:20:58.438Z,100470
2017-07-08T09:22:00.458Z,100463
2017-07-08T09:23:00.253Z,100470
2017-07-08T09:23:58.601Z,100470
2017-07-08T09:24:58.743Z,100469
2017-07-08T09:26:00.372Z,100470
2017-07-08T09:26:59.696Z,100463
2017-07-08T09:27:59.123Z,100464
2017-07-08T09:28:58.900Z,100467
2017-07-08T09:29:58.944Z,100459
2017-07-08T09:31:00.678Z,100470
2017-07-08T09:32:00.753Z,100465
2017-07-08T09:32:59.203Z,100473
2017-07-08T09:33:59.545Z,100477
2017-07-08T09:35:00.955Z,100476
2017-07-08T09:35:59.261Z,100467
2017-07-08T09:36:59.417Z,100474
2017-07-08T09:38:00.398Z,100475
2017-07-08T09:39:01.090Z,100465
2017-07-08T09:40:00.759Z,100478
2017-07-08T09:40:59.566Z,100476
2017-07-08T09:42:00.555Z,100468
2017-07-08T09:42:59.672Z,100475
2017-07-08T09:43:59.628Z,100474
2017-07-08T09:45:00.668Z,100474
2017-07-08T09:46:00.006Z,100473
2017-07-08T09:47:02.153Z,100465
2017-07-08T09:48:00.883Z,100468
2017-07-08T09:49:01.612Z,100473
2017-07-08T09:50:00.614Z,100472
2017-07-08T09:51:00.076Z,100477
2017-07-08T09:52:02.051Z,100475
2017-07-08T09:53:00.148Z,100474
2017-07-08T09:54:01.896Z,100478
2017-07-08T09:55:00.342Z,100466
2017-07-08T09:56:00.390Z,100473
2017-07-08T09:57:00.513Z,100473
2017-07-08T09:58:00.845Z,100473
2017-07-08T09:59:02.302Z,100474
2017-07-08T10:00:00.699Z,100477
2017-07-08T10:01:00.786Z,100472
2017-07-08T10:02:01.942Z,100463
2017-07-08T10:03:01.082Z,100472
2017-07-08T10:04:01.332Z,100472
2017-07-08T10:05:02.504Z,100478
2017-07-08T10:06:03.578Z,100475
2017-07-08T10:07:02.231Z,100475
2017-07-08T10:08:01.987Z,100473
2017-07-08T10:09:02.337Z,100476
2017-07-08T10:10:01.750Z,100475
2017-07-08T10:11:03.140Z,100482
2017-07-08T10:12:02.015Z,100483
2017-07-08T10:13:01.538Z,100481
2017-07-08T10:14:01.734Z,100477
2017-07-08T10:15:01.743Z,100475
2017-07-08T10:16:02.139Z,100475
2017-07-08T10:17:03.555Z,100473
2017-07-08T10:18:01.968Z,100468
2017-07-08T10:19:01.983Z,100468
2017-07-08T10:20:03.086Z,100468
2017-07-08T10:21:03.930Z,100469
2017-07-08T10:22:04.103Z,100470
2017-07-08T10:23:03.920Z,100471
2017-07-08T10:24:02.938Z,100461
2017-07-08T10:25:03.352Z,100465
2017-07-08T10:26:04.201Z,100472
2017-07-08T10:27:03.473Z,100471
2017-07-08T10:28:04.457Z,100471
2017-07-08T10:29:02.583Z,100472
2017-07-08T10:30:02.640Z,100469
2017-07-08T10:31:03.601Z,100469
2017-07-08T10:32:02.760Z,100471
2017-07-08T10:33:03.615Z,100473
2017-07-08T10:34:04.012Z,100469
2017-07-08T10:35:04.295Z,100472
2017-07-08T10:36:02.591Z,100474
2017-07-08T10:37:02.687Z,100471
2017-07-08T10:38:02.683Z,100468
2017-07-08T10:39:02.788Z,100458
2017-07-08T10:40:03.225Z,100464
2017-07-08T10:41:02.905Z,100468
2017-07-08T10:42:02.974Z,100465
2017-07-08T10:43:02.989Z,100463
2017-07-08T10:44:03.122Z,100466
2017-07-08T10:45:04.099Z,100466
2017-07-08T10:46:05.098Z,100463
2017-07-08T10:47:03.267Z,100463
2017-07-08T10:48:03.286Z,100459
2017-07-08T10:49:05.077Z,100455
2017-07-08T10:50:03.471Z,100453
2017-07-08T10:51:03.438Z,100456
2017-07-08T10:52:04.475Z,100453
2017-07-08T10:53:05.189Z,100444
2017-07-08T10:54:03.523Z,100452
2017-07-08T10:55:05.222Z,100451
2017-07-08T10:56:05.282Z,100450
2017-07-08T10:57:05.354Z,100452
2017-07-08T10:58:04.027Z,100443
2017-07-08T10:59:04.798Z,100453
2017-07-08T11:00:05.580Z,100456
2017-07-08T11:01:03.939Z,100455
2017-07-08T11:02:03.966Z,100454
2017-07-08T11:03:03.994Z,100448
2017-07-08T11:04:04.304Z,100447
2017-07-08T11:05:05.742Z,100440
2017-07-08T11:06:05.773Z,100451
2017-07-08T11:07:04.158Z,100447
2017-07-08T11:08:04.232Z,100447
2017-07-08T11:09:04.280Z,100451
2017-07-08T11:10:06.159Z,100440
2017-07-08T11:11:06.044Z,100450
2017-07-08T11:12:04.416Z,100450
2017-07-08T11:13:04.527Z,100446
2017-07-08T11:14:06.187Z,100450
2017-07-08T11:15:04.683Z,100445
2017-07-08T11:16:04.984Z,100451
2017-07-08T11:17:04.819Z,100450
2017-07-08T11:18:07.203Z,100448
2017-07-08T11:19:06.634Z,100451
2017-07-08T11:20:06.716Z,100448
2017-07-08T11:21:06.755Z,100449
2017-07-08T11:22:05.901Z,100447
2017-07-08T11:23:05.155Z,100448
2017-07-08T11:24:05.134Z,100446
2017-07-08T11:25:05.154Z,100444
2017-07-08T11:26:07.929Z,100442
2017-07-08T11:27:06.976Z,100440
2017-07-08T11:28:06.297Z,100440
2017-07-08T11:29:06.360Z,100434
2017-07-08T11:30:05.515Z,100438
2017-07-08T11:31:05.458Z,100437
2017-07-08T11:32:07.171Z,100435
2017-07-08T11:33:05.536Z,100437
2017-07-08T11:34:05.878Z,100433
2017-07-08T11:35:05.691Z,100434
2017-07-08T11:36:05.808Z,100433
2017-07-08T11:37:06.823Z,100432
2017-07-08T11:38:06.933Z,100431
2017-07-08T11:39:07.715Z,100430
2017-07-08T11:40:07.999Z,100433
2017-07-08T11:41:06.094Z,100433
2017-07-08T11:42:07.845Z,100429
2017-07-08T11:43:07.917Z,100434
2017-07-08T11:44:07.246Z,100437
2017-07-08T11:45:07.318Z,100431
2017-07-08T11:46:06.719Z,100434
2017-07-08T11:47:07.417Z,100428
2017-07-08T11:48:06.554Z,100424
2017-07-08T11:49:06.615Z,100428
2017-07-08T11:50:07.577Z,100431
2017-07-08T11:51:06.751Z,100430
2017-07-08T11:52:08.007Z,100432
2017-07-08T11:53:07.767Z,100434
2017-07-08T11:54:07.798Z,100439
2017-07-08T11:55:06.918Z,100437
2017-07-08T11:56:07.879Z,100435
2017-07-08T11:57:06.984Z,100429
2017-07-08T11:58:09.029Z,100432
2017-07-08T11:59:08.067Z,100431
2017-07-08T12:00:08.093Z,100425
2017-07-08T12:01:08.181Z,100430
2017-07-08T12:02:07.236Z,100432
2017-07-08T12:03:08.276Z,100432
2017-07-08T12:04:07.636Z,100432
2017-07-08T12:05:08.358Z,100420
2017-07-08T12:06:08.472Z,100430
2017-07-08T12:07:07.517Z,100427
2017-07-08T12:08:09.280Z,100427
2017-07-08T12:09:07.643Z,100421
2017-07-08T12:10:07.922Z,100419
2017-07-08T12:11:08.661Z,100422
2017-07-08T12:12:09.421Z,100428
2017-07-08T12:13:07.784Z,100429
2017-07-08T12:14:08.829Z,100422
2017-07-08T12:15:07.967Z,100421
2017-07-08T12:16:09.311Z,100420
2017-07-08T12:17:09.723Z,100423
2017-07-08T12:18:09.157Z,100424
2017-07-08T12:19:09.207Z,100422
2017-07-08T12:20:08.293Z,100415
2017-07-08T12:21:08.368Z,100416
2017-07-08T12:22:09.649Z,100423
2017-07-08T12:23:08.457Z,100417
2017-07-08T12:24:08.504Z,100413
2017-07-08T12:25:08.565Z,100413
2017-07-08T12:26:10.333Z,100409
2017-07-08T12:27:09.716Z,100408
2017-07-08T12:28:09.107Z,100404
2017-07-08T12:29:08.900Z,100404